createdAt,value
2023-02-03T00:06:15.138Z,10.20
2023-02-03T00:12:45.679Z,10.30
2023-02-03T00:19:04.223Z,10.40
2023-02-03T00:24:58.585Z,10.30
2023-02-03T00:30:54.180Z,10.30
2023-02-03T00:37:13.233Z,10.20
2023-02-03T00:43:31.585Z,10.10
2023-02-03T00:49:26.012Z,10.10
2023-02-03T00:55:20.496Z,10.00
2023-02-03T01:01:39.057Z,9.90
2023-02-03T01:07:57.448Z,10.00
2023-02-03T01:13:51.824Z,10.10
2023-02-03T01:19:46.300Z,10.10
2023-02-03T01:26:09.423Z,10.10
2023-02-03T01:32:27.798Z,10.00
2023-02-03T01:38:22.154Z,10.00
2023-02-03T01:44:55.885Z,9.90
2023-02-03T01:51:14.423Z,9.90
2023-02-03T01:57:34.833Z,9.90
2023-02-03T02:03:52.622Z,9.90
2023-02-03T02:09:47.076Z,9.90
2023-02-03T02:16:21.787Z,9.90
2023-02-03T02:22:59.141Z,9.90
2023-02-03T02:28:59.406Z,10.00
2023-02-03T02:34:59.694Z,10.00
2023-02-03T02:41:28.546Z,10.10
2023-02-03T02:47:46.937Z,10.10
2023-02-03T02:53:43.188Z,10.10
2023-02-03T02:59:37.720Z,10.00
2023-02-03T03:06:48.398Z,10.10
2023-02-03T03:13:07.757Z,10.00
2023-02-03T03:19:03.191Z,10.00
2023-02-03T03:25:03.721Z,10.00
2023-02-03T03:31:22.279Z,10.10
2023-02-03T03:37:40.667Z,9.90
2023-02-03T03:43:35.819Z,9.80
2023-02-03T03:49:30.561Z,9.80
2023-02-03T03:55:50.626Z,9.80
2023-02-03T04:02:09.186Z,9.80
2023-02-03T04:08:03.841Z,9.70
2023-02-03T04:13:58.368Z,9.70
2023-02-03T04:20:29.633Z,9.70
2023-02-03T04:26:48.259Z,9.60
2023-02-03T04:32:42.677Z,9.60
2023-02-03T04:38:38.116Z,9.70
2023-02-03T04:44:56.679Z,9.70
2023-02-03T04:51:15.067Z,9.80
2023-02-03T04:57:09.508Z,9.80
2023-02-03T05:03:04.045Z,9.70
2023-02-03T05:09:22.556Z,9.70
2023-02-03T05:15:40.978Z,9.80
2023-02-03T05:21:35.365Z,9.70
2023-02-03T05:27:29.899Z,9.70
2023-02-03T05:33:48.438Z,9.70
2023-02-03T05:40:27.671Z,9.70
2023-02-03T05:46:22.369Z,9.60
2023-02-03T05:52:18.216Z,9.60
2023-02-03T05:58:36.751Z,9.60
2023-02-03T06:04:55.119Z,9.60
2023-02-03T06:10:50.630Z,9.50
2023-02-03T06:16:45.384Z,9.50
2023-02-03T06:23:17.272Z,9.50
2023-02-03T06:29:36.664Z,9.50
2023-02-03T06:35:31.051Z,9.40
2023-02-03T06:41:28.767Z,9.40
2023-02-03T06:47:47.299Z,9.40
2023-02-03T06:54:05.727Z,9.40
2023-02-03T07:00:00.145Z,9.30
2023-02-03T07:05:54.772Z,9.30
2023-02-03T07:12:13.343Z,9.30
2023-02-03T07:18:46.171Z,9.40
2023-02-03T07:24:41.072Z,9.30
2023-02-03T07:30:35.569Z,9.20
2023-02-03T07:36:54.066Z,9.30
2023-02-03T07:43:12.605Z,9.30
2023-02-03T07:49:07.084Z,9.30
2023-02-03T07:55:01.629Z,9.30
2023-02-03T08:01:20.150Z,9.30
2023-02-03T08:07:38.605Z,9.30
2023-02-03T08:13:33.018Z,9.30
2023-02-03T08:19:27.612Z,9.20
2023-02-03T08:25:58.089Z,9.30
2023-02-03T08:32:17.315Z,9.40
2023-02-03T08:38:11.697Z,9.50
2023-02-03T08:44:06.185Z,9.60
2023-02-03T08:50:24.688Z,9.70
2023-02-03T08:56:43.088Z,9.80
2023-02-03T09:02:37.507Z,9.80
2023-02-03T09:08:32.059Z,9.90
2023-02-03T09:14:50.987Z,9.80
2023-02-03T09:21:13.868Z,9.80
2023-02-03T09:27:10.348Z,9.90
2023-02-03T09:33:04.822Z,9.90
2023-02-03T09:39:23.306Z,9.90
2023-02-03T09:45:41.749Z,10.00
2023-02-03T09:51:39.149Z,10.10
2023-02-03T09:57:41.097Z,10.10
2023-02-03T10:04:27.890Z,10.20
2023-02-03T10:11:10.705Z,10.30
2023-02-03T10:17:05.180Z,10.30
2023-02-03T10:23:02.112Z,10.40
2023-02-03T10:29:38.359Z,10.30
2023-02-03T10:36:10.255Z,10.40
2023-02-03T10:42:04.882Z,10.20
2023-02-03T10:47:59.354Z,10.10
2023-02-03T10:54:32.388Z,10.00
2023-02-03T11:00:54.566Z,10.10
2023-02-03T11:07:02.119Z,10.00
2023-02-03T11:13:19.488Z,10.10
2023-02-03T11:19:38.264Z,10.20
2023-02-03T11:25:56.623Z,10.20
2023-02-03T11:31:54.925Z,10.20
2023-02-03T11:37:51.393Z,10.30
2023-02-03T11:44:19.864Z,10.40
2023-02-03T11:51:01.570Z,10.50
2023-02-03T11:57:02.272Z,10.50
2023-02-03T12:03:21.971Z,10.40
2023-02-03T12:09:57.706Z,10.50
2023-02-03T12:16:22.626Z,10.60
2023-02-03T12:22:23.880Z,10.40
2023-02-03T12:28:41.449Z,10.30
2023-02-03T12:35:44.202Z,10.40
2023-02-03T12:42:07.649Z,10.40
2023-02-03T12:48:04.159Z,10.30
2023-02-03T12:54:02.243Z,10.40
2023-02-03T13:00:46.508Z,10.60
2023-02-03T13:07:13.113Z,10.60
2023-02-03T13:13:09.301Z,10.60
2023-02-03T13:19:15.522Z,10.60
2023-02-03T13:25:48.169Z,10.60
2023-02-03T13:32:15.634Z,10.70
2023-02-03T13:38:29.306Z,10.70
2023-02-03T13:44:28.534Z,10.60
2023-02-03T13:50:49.655Z,10.70
2023-02-03T13:57:24.953Z,10.60
2023-02-03T14:03:25.470Z,10.70
2023-02-03T14:09:23.971Z,10.90
2023-02-03T14:15:44.613Z,11.00
2023-02-03T14:22:04.430Z,11.10
2023-02-03T14:28:08.903Z,10.80
2023-02-03T14:34:07.982Z,10.60
2023-02-03T14:41:01.446Z,10.50
2023-02-03T14:47:34.953Z,10.60
2023-02-03T14:53:29.367Z,10.50
2023-02-03T14:59:25.775Z,10.50
2023-02-03T15:05:45.913Z,10.40
2023-02-03T15:12:16.099Z,10.60
2023-02-03T15:18:21.155Z,10.50
2023-02-03T15:24:19.203Z,10.50
2023-02-03T15:37:25.801Z,10.50
2023-02-03T15:43:39.874Z,10.60
2023-02-03T15:50:36.541Z,10.50
2023-02-03T15:56:59.841Z,10.40
2023-02-03T16:02:55.072Z,10.30
2023-02-03T16:08:51.627Z,10.20
2023-02-03T16:15:22.839Z,10.20
2023-02-03T16:21:50.373Z,10.10
2023-02-03T16:27:45.451Z,10.10
2023-02-03T16:33:59.484Z,10.00
2023-02-03T16:40:41.186Z,10.10
2023-02-03T16:47:18.329Z,10.00
2023-02-03T16:53:38.732Z,10.00
2023-02-03T16:59:33.388Z,10.00
2023-02-03T17:05:52.152Z,10.10
2023-02-03T17:12:11.793Z,10.20
2023-02-03T17:18:06.230Z,10.20
2023-02-03T17:24:00.804Z,10.20
2023-02-03T17:30:21.579Z,10.20
2023-02-03T17:36:39.986Z,10.20
2023-02-03T17:55:22.930Z,10.40
2023-02-03T18:01:41.440Z,10.40
2023-02-03T18:07:35.832Z,10.40
2023-02-03T18:13:34.257Z,10.40
2023-02-03T18:19:56.188Z,10.40
2023-02-03T18:26:14.830Z,10.40
2023-02-03T18:32:09.194Z,10.40
2023-02-03T18:38:04.783Z,10.30
2023-02-03T18:44:26.429Z,10.30
2023-02-03T18:50:44.898Z,10.30
2023-02-03T18:56:39.307Z,10.20
2023-02-03T19:02:34.536Z,10.20
2023-02-03T19:08:53.051Z,10.20
2023-02-03T19:15:12.313Z,10.20
2023-02-03T19:21:07.741Z,10.10
2023-02-03T19:27:02.200Z,10.10
2023-02-03T19:33:20.665Z,10.20
2023-02-03T19:39:39.484Z,10.20
2023-02-03T19:45:33.918Z,10.20
2023-02-03T19:51:28.418Z,10.10
2023-02-03T19:57:46.971Z,10.10
2023-02-03T20:04:07.550Z,10.20
2023-02-03T20:10:01.995Z,10.20
2023-02-03T20:15:56.786Z,10.20
2023-02-03T20:22:15.319Z,10.30
2023-02-03T20:28:36.008Z,10.30
2023-02-03T20:34:30.435Z,10.30
2023-02-03T20:40:26.605Z,10.30
2023-02-03T20:46:45.234Z,10.40
2023-02-03T20:53:03.717Z,10.50
2023-02-03T20:58:58.087Z,10.60
2023-02-03T21:04:58.234Z,10.70
2023-02-03T21:11:18.801Z,10.70
2023-02-03T21:17:37.303Z,10.50
2023-02-03T21:23:41.083Z,10.40
2023-02-03T21:29:36.927Z,10.40
2023-02-03T21:35:55.423Z,10.30
2023-02-03T21:42:50.548Z,10.30
2023-02-03T21:48:48.396Z,10.20
2023-02-03T21:54:44.373Z,10.10
2023-02-03T22:01:07.190Z,10.10
2023-02-03T22:07:25.585Z,10.20
2023-02-03T22:13:20.247Z,10.10
2023-02-03T22:19:17.525Z,10.10
2023-02-03T22:25:36.192Z,10.10
2023-02-03T22:31:54.686Z,10.10
2023-02-03T22:37:50.401Z,10.00
2023-02-03T22:43:44.859Z,10.00
2023-02-03T22:50:04.664Z,10.00
2023-02-03T22:56:23.755Z,10.00
2023-02-03T23:02:18.161Z,9.90
2023-02-03T23:08:12.644Z,9.90
2023-02-03T23:14:31.945Z,9.90
2023-02-03T23:20:50.426Z,9.90
2023-02-03T23:26:44.826Z,9.80
2023-02-03T23:32:39.369Z,9.80
2023-02-03T23:38:57.861Z,9.90
2023-02-03T23:45:16.429Z,9.90
2023-02-03T23:51:10.818Z,9.80
2023-02-03T23:57:05.279Z,9.80
